Time;durP1;ratioP1;P1;durP2;ratioP2;P2;SDS_P1;SDS_P2;PMS_P1;PMS_P2;Temp;Humidity;BMP_temperature;BMP_pressure;BME280_temperature;BME280_humidity;BME280_pressure;Samples;Min_cycle;Max_cycle;Signal;HPM_P1;HPM_P2
2023/09/09 00:01:35;;;;;;;18.63;14.55;;;20.30;99.90;;;;;;5115052;28;20092;-71
2023/09/09 00:04:03;;;;;;;16.45;13.18;;;20.30;99.90;;;;;;5115247;27;20035;-71
2023/09/09 00:06:28;;;;;;;19.30;13.40;;;20.30;99.90;;;;;;5114848;28;20044;-72
2023/09/09 00:08:54;;;;;;;18.17;12.35;;;20.30;99.90;;;;;;5114838;28;20409;-72
2023/09/09 00:11:20;;;;;;;15.75;13.48;;;20.30;99.90;;;;;;5115000;28;20114;-71
2023/09/09 00:13:48;;;;;;;17.90;13.60;;;20.20;99.90;;;;;;5113891;28;20521;-71
2023/09/09 00:16:14;;;;;;;15.98;13.43;;;20.20;99.90;;;;;;5114574;28;20474;-71
2023/09/09 00:18:39;;;;;;;15.05;12.38;;;20.20;99.90;;;;;;5114558;28;20063;-71
2023/09/09 00:21:05;;;;;;;15.98;12.45;;;20.10;99.90;;;;;;5114621;28;20118;-72
2023/09/09 00:23:31;;;;;;;15.65;12.70;;;20.00;99.90;;;;;;5114832;28;20032;-71
2023/09/09 00:25:56;;;;;;;16.98;14.05;;;19.90;99.90;;;;;;5114543;28;20067;-72
2023/09/09 00:28:23;;;;;;;15.85;13.13;;;19.90;99.90;;;;;;5113151;28;20040;-71
2023/09/09 00:30:49;;;;;;;14.00;12.05;;;19.80;99.90;;;;;;5114329;28;20039;-71
2023/09/09 00:33:15;;;;;;;15.93;13.23;;;19.90;99.90;;;;;;5113334;28;20113;-71
2023/09/09 00:35:40;;;;;;;16.52;13.07;;;19.90;99.90;;;;;;5114343;28;20078;-71
2023/09/09 00:38:07;;;;;;;17.23;13.77;;;19.80;99.90;;;;;;5114409;28;20059;-71
2023/09/09 00:40:32;;;;;;;19.35;15.02;;;19.80;99.90;;;;;;5113006;28;20042;-72
2023/09/09 00:42:58;;;;;;;19.27;14.60;;;19.80;99.90;;;;;;5113152;28;20039;-73
2023/09/09 00:45:25;;;;;;;18.58;16.30;;;19.80;99.90;;;;;;5114273;28;20422;-72
2023/09/09 00:47:51;;;;;;;19.08;16.85;;;19.80;99.90;;;;;;5112807;28;20052;-72
2023/09/09 00:50:16;;;;;;;20.80;17.00;;;19.70;99.90;;;;;;5112763;28;20049;-72
2023/09/09 00:52:43;;;;;;;23.67;17.98;;;19.70;99.90;;;;;;5114182;28;20101;-72
2023/09/09 00:55:11;;;;;;;23.23;16.48;;;19.70;99.90;;;;;;5114220;28;20031;-72
2023/09/09 00:57:37;;;;;;;19.48;16.65;;;19.70;99.90;;;;;;5113836;28;20071;-72
2023/09/09 01:00:09;;;;;;;23.40;17.30;;;19.70;99.90;;;;;;5113883;28;20080;-72
2023/09/09 01:02:39;;;;;;;21.85;17.60;;;19.70;99.90;;;;;;5096018;28;20043;-72
2023/09/09 01:05:09;;;;;;;21.30;17.88;;;19.70;99.90;;;;;;5112969;28;20491;-72
2023/09/09 01:10:11;;;;;;;22.75;17.77;;;19.70;99.90;;;;;;5182829;22;20436;-72
2023/09/09 01:12:37;;;;;;;23.20;17.83;;;19.70;99.90;;;;;;5032260;28;20728;-72
2023/09/09 01:15:05;;;;;;;22.40;17.55;;;19.70;99.90;;;;;;5033089;28;20045;-72
2023/09/09 01:17:33;;;;;;;23.85;18.50;;;19.70;99.90;;;;;;5032857;28;20044;-72
2023/09/09 01:19:59;;;;;;;24.67;18.35;;;19.70;99.90;;;;;;5032535;28;20041;-72
2023/09/09 01:22:25;;;;;;;25.17;19.17;;;19.70;99.90;;;;;;5031966;28;20049;-72
2023/09/09 01:24:51;;;;;;;25.25;18.83;;;19.60;99.90;;;;;;5031697;28;20037;-71
2023/09/09 01:27:16;;;;;;;24.00;19.42;;;19.60;99.90;;;;;;5033066;28;20042;-71
2023/09/09 01:29:42;;;;;;;21.17;18.60;;;19.60;99.90;;;;;;5032473;28;20102;-70
2023/09/09 01:32:07;;;;;;;25.65;18.67;;;19.70;99.90;;;;;;5032904;28;20118;-70
2023/09/09 01:34:33;;;;;;;22.60;18.13;;;19.60;99.90;;;;;;5031474;28;20044;-71
2023/09/09 01:36:58;;;;;;;25.75;19.23;;;19.60;99.90;;;;;;5031343;28;20049;-71
2023/09/09 01:39:24;;;;;;;23.75;18.60;;;19.60;99.90;;;;;;5032447;28;20037;-71
2023/09/09 01:41:50;;;;;;;25.27;20.00;;;19.60;99.90;;;;;;5032751;28;20120;-71
2023/09/09 01:44:16;;;;;;;23.63;17.77;;;19.60;99.90;;;;;;5031198;28;20071;-71
2023/09/09 01:46:41;;;;;;;24.10;17.70;;;19.60;99.90;;;;;;5032559;28;20465;-70
2023/09/09 01:49:07;;;;;;;23.88;19.33;;;19.60;99.90;;;;;;5032100;28;20053;-70
2023/09/09 01:51:33;;;;;;;26.05;19.67;;;19.60;99.90;;;;;;5032370;28;20042;-70
2023/09/09 01:53:58;;;;;;;24.90;20.00;;;19.60;99.90;;;;;;5032420;28;20388;-69
2023/09/09 01:56:24;;;;;;;23.80;19.45;;;19.60;99.90;;;;;;5032029;28;20033;-69
2023/09/09 01:58:50;;;;;;;24.08;18.92;;;19.60;99.90;;;;;;5030754;28;20033;-70
2023/09/09 02:01:15;;;;;;;26.15;20.33;;;19.60;99.90;;;;;;5032304;28;20039;-70
2023/09/09 02:03:41;;;;;;;28.88;21.20;;;19.60;99.90;;;;;;5032221;28;20125;-70
2023/09/09 02:06:06;;;;;;;27.08;20.35;;;19.50;99.90;;;;;;5032088;28;20088;-70
2023/09/09 02:08:32;;;;;;;27.85;20.52;;;19.60;99.90;;;;;;5031616;28;20037;-70
2023/09/09 02:10:58;;;;;;;27.52;21.02;;;19.60;99.90;;;;;;5032282;28;20056;-70
2023/09/09 02:13:23;;;;;;;27.35;20.85;;;19.50;99.90;;;;;;5030776;28;20045;-70
2023/09/09 02:15:49;;;;;;;27.88;21.90;;;19.50;99.90;;;;;;5030616;28;20048;-69
2023/09/09 02:18:14;;;;;;;28.40;21.48;;;19.50;99.90;;;;;;5031561;28;20044;-69
2023/09/09 02:20:40;;;;;;;25.48;21.10;;;19.40;99.90;;;;;;5021980;28;20043;-70
2023/09/09 02:23:05;;;;;;;26.35;21.08;;;19.40;99.90;;;;;;5012268;28;20038;-70
2023/09/09 02:25:31;;;;;;;27.02;20.85;;;19.40;99.90;;;;;;5012212;28;20034;-70
2023/09/09 02:27:56;;;;;;;29.00;20.13;;;19.40;99.90;;;;;;5019593;28;20068;-70
2023/09/09 02:30:22;;;;;;;24.25;20.02;;;19.40;99.90;;;;;;5022043;28;20033;-69
2023/09/09 02:32:49;;;;;;;24.65;19.38;;;19.40;99.90;;;;;;5031744;28;20416;-70
2023/09/09 02:35:14;;;;;;;27.35;21.35;;;19.40;99.90;;;;;;5031730;28;20060;-70
2023/09/09 02:37:40;;;;;;;27.70;19.90;;;19.40;99.90;;;;;;5031780;28;20409;-70
2023/09/09 02:40:06;;;;;;;25.73;20.52;;;19.30;99.90;;;;;;5031418;28;20043;-69
2023/09/09 02:42:32;;;;;;;29.92;21.48;;;19.30;99.90;;;;;;5030448;28;20167;-70
2023/09/09 02:44:57;;;;;;;29.50;20.85;;;19.30;99.90;;;;;;5031556;28;20473;-70
2023/09/09 02:47:23;;;;;;;25.88;21.17;;;19.30;99.90;;;;;;5023341;28;20084;-70
2023/09/09 02:49:50;;;;;;;26.58;20.55;;;19.30;99.90;;;;;;5031121;28;20128;-70
2023/09/09 02:52:15;;;;;;;26.10;21.10;;;19.30;99.90;;;;;;5030178;28;20049;-69
2023/09/09 02:54:41;;;;;;;23.58;20.90;;;19.30;99.90;;;;;;5031670;28;20041;-70
2023/09/09 02:57:06;;;;;;;28.27;21.98;;;19.20;99.90;;;;;;5034711;28;20049;-70
2023/09/09 02:59:33;;;;;;;27.75;21.05;;;19.20;99.90;;;;;;5035503;28;20481;-70
2023/09/09 03:01:59;;;;;;;30.27;21.73;;;19.20;99.90;;;;;;5034377;28;20168;-70
2023/09/09 03:04:25;;;;;;;27.25;22.13;;;19.20;99.90;;;;;;5034393;28;20045;-70
2023/09/09 03:06:51;;;;;;;28.20;21.23;;;19.20;99.90;;;;;;5034213;28;20049;-70
2023/09/09 03:09:16;;;;;;;30.40;23.67;;;19.20;99.90;;;;;;5033689;28;20051;-70
2023/09/09 03:11:42;;;;;;;30.85;22.25;;;19.20;99.90;;;;;;5034136;28;20080;-70
2023/09/09 03:14:08;;;;;;;30.10;22.45;;;19.20;99.90;;;;;;5035412;28;20037;-70
2023/09/09 03:16:35;;;;;;;29.52;23.30;;;19.10;99.90;;;;;;5034056;28;20204;-70
2023/09/09 03:19:00;;;;;;;28.10;22.83;;;19.10;99.90;;;;;;5035021;28;20037;-70
2023/09/09 03:21:26;;;;;;;29.02;22.15;;;19.10;99.90;;;;;;5035356;28;20406;-70
2023/09/09 03:23:51;;;;;;;33.60;23.38;;;19.00;99.90;;;;;;5035477;28;20065;-70
2023/09/09 03:26:18;;;;;;;28.00;22.10;;;19.00;99.90;;;;;;5035342;28;20041;-70
2023/09/09 03:28:48;;;;;;;27.67;21.40;;;19.00;99.90;;;;;;5033819;28;20496;-70
2023/09/09 03:31:14;;;;;;;26.83;22.38;;;19.00;99.90;;;;;;5035186;28;20052;-70
2023/09/09 03:33:40;;;;;;;29.65;23.17;;;18.90;99.90;;;;;;5034018;28;20037;-70
2023/09/09 03:36:06;;;;;;;29.30;21.85;;;18.90;99.90;;;;;;5034030;28;20408;-70
2023/09/09 03:38:32;;;;;;;29.50;21.80;;;18.90;99.90;;;;;;5033340;28;20068;-70
2023/09/09 03:40:58;;;;;;;27.88;22.75;;;18.90;99.90;;;;;;5033883;28;20107;-70
2023/09/09 03:43:23;;;;;;;27.77;21.08;;;18.90;99.90;;;;;;5033944;28;20496;-70
2023/09/09 03:45:56;;;;;;;27.13;21.20;;;18.90;99.90;;;;;;5033764;28;20137;-70
2023/09/09 03:48:22;;;;;;;30.88;23.60;;;18.80;99.90;;;;;;5034523;28;20034;-72
2023/09/09 03:50:47;;;;;;;29.30;23.15;;;18.80;99.90;;;;;;5033479;28;20045;-70
2023/09/09 03:53:13;;;;;;;33.30;24.42;;;18.80;99.90;;;;;;5034878;28;20094;-70
2023/09/09 03:55:39;;;;;;;32.50;23.52;;;18.70;99.90;;;;;;5033771;28;20464;-70
2023/09/09 03:58:04;;;;;;;30.65;23.67;;;18.70;99.90;;;;;;5034426;28;20511;-70
2023/09/09 04:00:30;;;;;;;33.50;24.55;;;18.80;99.90;;;;;;5033117;28;20038;-70
2023/09/09 04:02:56;;;;;;;34.83;25.95;;;18.70;99.90;;;;;;5034746;28;20029;-71
2023/09/09 04:05:21;;;;;;;30.30;24.42;;;18.80;99.90;;;;;;5033241;28;20124;-71
2023/09/09 04:07:47;;;;;;;36.00;25.02;;;18.80;99.90;;;;;;5033445;28;20045;-71
2023/09/09 04:10:12;;;;;;;31.10;24.25;;;18.80;99.90;;;;;;5033016;28;20052;-70
2023/09/09 04:12:38;;;;;;;31.02;23.40;;;18.70;99.90;;;;;;5033367;28;20517;-71
2023/09/09 04:15:08;;;;;;;32.13;24.13;;;18.70;99.90;;;;;;5034218;28;20088;-71
2023/09/09 04:17:33;;;;;;;32.13;24.08;;;18.70;99.90;;;;;;5032933;28;20124;-71
2023/09/09 04:19:59;;;;;;;36.38;24.73;;;18.70;99.90;;;;;;5034013;28;20117;-71
2023/09/09 04:22:26;;;;;;;34.00;26.05;;;18.70;99.90;;;;;;5034313;28;20451;-71
2023/09/09 04:24:53;;;;;;;31.10;24.83;;;18.70;99.90;;;;;;5034274;28;20038;-71
2023/09/09 04:27:20;;;;;;;33.22;26.25;;;18.70;99.90;;;;;;5032950;28;20049;-71
2023/09/09 04:29:45;;;;;;;34.92;25.80;;;18.70;99.90;;;;;;5033746;28;20041;-71
2023/09/09 04:32:12;;;;;;;31.02;24.77;;;18.70;99.90;;;;;;5034295;28;20394;-71
2023/09/09 04:34:38;;;;;;;33.30;26.08;;;18.70;99.90;;;;;;5016265;28;20053;-71
2023/09/09 04:37:04;;;;;;;26.27;19.08;;;18.70;99.90;;;;;;5034008;28;20385;-71
2023/09/09 04:39:29;;;;;;;27.27;21.30;;;18.60;99.90;;;;;;5033652;28;20030;-71
2023/09/09 04:41:55;;;;;;;23.88;19.48;;;18.50;99.90;;;;;;5032558;28;20489;-71
2023/09/09 04:44:20;;;;;;;28.60;22.98;;;18.50;99.90;;;;;;5033672;28;20033;-71
2023/09/09 04:46:46;;;;;;;32.75;22.95;;;18.50;99.90;;;;;;5032501;28;20203;-71
2023/09/09 04:49:11;;;;;;;35.25;25.38;;;18.50;99.90;;;;;;5033318;28;20079;-70
2023/09/09 04:51:37;;;;;;;38.95;25.55;;;18.50;99.90;;;;;;5032298;28;20112;-71
2023/09/09 04:54:03;;;;;;;34.30;25.20;;;18.50;99.90;;;;;;5032300;28;20029;-71
2023/09/09 04:56:28;;;;;;;33.80;25.88;;;18.40;99.90;;;;;;5032139;28;20045;-71
2023/09/09 04:58:54;;;;;;;36.70;25.45;;;18.40;99.90;;;;;;5015496;28;20041;-71
2023/09/09 05:01:19;;;;;;;30.67;24.77;;;18.40;99.90;;;;;;5032049;28;20056;-71
2023/09/09 05:03:45;;;;;;;33.80;25.30;;;18.40;99.90;;;;;;5032536;28;20041;-71
2023/09/09 05:06:11;;;;;;;35.30;26.75;;;18.40;99.90;;;;;;5015356;28;20041;-71
2023/09/09 05:08:37;;;;;;;33.80;26.73;;;18.50;99.90;;;;;;5032863;28;20045;-71
2023/09/09 05:11:03;;;;;;;32.22;25.88;;;18.50;99.90;;;;;;5033380;28;20048;-70
2023/09/09 05:13:28;;;;;;;33.53;26.50;;;18.50;99.90;;;;;;5033167;28;20045;-70
2023/09/09 05:15:54;;;;;;;34.08;26.90;;;18.50;99.90;;;;;;5033118;28;20040;-70
2023/09/09 05:18:19;;;;;;;35.60;27.77;;;18.50;99.90;;;;;;5032416;28;20041;-70
2023/09/09 05:20:45;;;;;;;36.28;26.77;;;18.50;99.90;;;;;;5033122;28;20049;-70
2023/09/09 05:23:10;;;;;;;36.97;27.40;;;18.50;99.90;;;;;;5033012;28;20033;-70
2023/09/09 05:25:36;;;;;;;32.67;26.52;;;18.50;99.90;;;;;;5033005;28;20559;-70
2023/09/09 05:28:02;;;;;;;34.40;26.63;;;18.60;99.90;;;;;;5031536;28;20122;-70
2023/09/09 05:30:27;;;;;;;36.83;26.55;;;18.60;99.90;;;;;;5032983;28;20045;-70
2023/09/09 05:32:53;;;;;;;35.97;27.88;;;18.60;99.90;;;;;;5032726;28;20033;-70
2023/09/09 05:35:18;;;;;;;33.38;26.30;;;18.60;99.90;;;;;;5032932;28;20048;-70
2023/09/09 05:37:45;;;;;;;35.92;26.58;;;18.70;99.90;;;;;;5032637;28;20049;-71
2023/09/09 05:40:11;;;;;;;32.25;26.15;;;18.70;99.90;;;;;;5031412;28;20034;-71
2023/09/09 05:42:37;;;;;;;34.30;26.48;;;18.80;99.90;;;;;;5031599;28;20118;-71
2023/09/09 05:45:03;;;;;;;32.28;26.15;;;18.80;99.90;;;;;;5032927;28;20116;-70
2023/09/09 05:47:29;;;;;;;33.80;25.98;;;18.80;99.90;;;;;;5031235;28;20127;-70
2023/09/09 05:49:55;;;;;;;29.83;24.35;;;18.80;99.90;;;;;;5032306;28;20197;-70
2023/09/09 05:52:21;;;;;;;30.63;25.33;;;18.90;99.90;;;;;;5031174;28;20049;-70
2023/09/09 05:54:46;;;;;;;33.95;23.77;;;18.90;99.90;;;;;;5032343;28;20041;-72
2023/09/09 05:57:12;;;;;;;33.22;25.42;;;19.00;99.90;;;;;;5030757;28;20034;-72
2023/09/09 05:59:38;;;;;;;35.38;27.05;;;19.00;99.90;;;;;;5030335;28;20526;-73
2023/09/09 06:02:05;;;;;;;36.03;27.77;;;19.10;99.90;;;;;;5031998;28;20049;-72
2023/09/09 06:04:30;;;;;;;36.50;27.63;;;19.20;99.90;;;;;;5031084;28;20068;-72
2023/09/09 06:06:56;;;;;;;32.60;25.13;;;19.40;99.90;;;;;;5032312;28;20041;-72
2023/09/09 06:09:22;;;;;;;36.28;26.17;;;19.50;99.90;;;;;;5031678;28;20519;-73
2023/09/09 06:11:49;;;;;;;36.42;27.88;;;19.60;99.90;;;;;;5031319;28;20046;-72
2023/09/09 06:14:15;;;;;;;33.40;25.23;;;19.80;99.90;;;;;;5031205;28;20480;-72
2023/09/09 06:16:41;;;;;;;31.65;24.77;;;20.00;99.90;;;;;;5032181;28;20073;-72
2023/09/09 06:19:06;;;;;;;33.90;24.98;;;20.10;99.90;;;;;;5031778;28;20037;-72
2023/09/09 06:21:32;;;;;;;32.75;25.52;;;20.30;99.90;;;;;;5030818;28;20401;-72
2023/09/09 06:23:58;;;;;;;31.15;24.23;;;20.40;99.90;;;;;;5031995;28;20116;-72
2023/09/09 06:26:24;;;;;;;35.30;24.40;;;20.60;99.90;;;;;;5030615;28;20048;-72
2023/09/09 06:28:50;;;;;;;31.60;24.30;;;20.70;99.90;;;;;;5030290;28;20049;-72
2023/09/09 06:31:15;;;;;;;28.55;23.13;;;21.00;99.90;;;;;;5031027;28;20447;-72
2023/09/09 06:33:41;;;;;;;30.33;23.08;;;21.20;99.90;;;;;;5031756;28;20044;-72
2023/09/09 06:36:07;;;;;;;26.70;21.42;;;21.40;99.90;;;;;;5014032;28;20467;-72
2023/09/09 06:38:32;;;;;;;29.35;22.85;;;21.50;99.90;;;;;;5030137;28;20049;-72
2023/09/09 06:40:58;;;;;;;29.55;22.35;;;21.60;99.90;;;;;;5030421;28;20043;-72
2023/09/09 06:43:23;;;;;;;26.40;22.05;;;21.70;99.90;;;;;;5030465;28;20042;-72
2023/09/09 06:45:49;;;;;;;28.63;22.15;;;21.80;99.90;;;;;;5031827;28;20116;-72
2023/09/09 06:48:17;;;;;;;32.45;22.90;;;22.00;99.90;;;;;;5031185;28;20044;-72
2023/09/09 06:50:52;;;;;;;27.05;21.95;;;22.00;99.90;;;;;;5030404;28;20053;-72
2023/09/09 06:53:17;;;;;;;24.90;20.23;;;22.10;99.90;;;;;;5031667;28;20045;-72
2023/09/09 06:55:47;;;;;;;26.92;20.98;;;22.20;99.90;;;;;;5031812;28;20389;-72
2023/09/09 06:58:13;;;;;;;27.85;20.85;;;22.50;99.90;;;;;;5030078;28;20045;-72
2023/09/09 07:00:39;;;;;;;26.83;20.17;;;22.60;99.90;;;;;;5030193;28;20052;-73
2023/09/09 07:03:07;;;;;;;26.10;20.33;;;22.80;99.90;;;;;;5030319;28;20045;-73
2023/09/09 07:05:33;;;;;;;28.40;20.45;;;23.10;99.90;;;;;;5031546;28;20042;-72
2023/09/09 07:07:58;;;;;;;25.30;19.63;;;23.30;99.90;;;;;;5030354;28;20060;-72
2023/09/09 07:10:24;;;;;;;27.80;20.58;;;23.60;99.90;;;;;;5031264;28;20042;-72
2023/09/09 07:12:49;;;;;;;21.52;18.65;;;23.80;99.90;;;;;;5030240;28;20045;-73
2023/09/09 07:15:16;;;;;;;22.90;18.92;;;23.90;99.90;;;;;;5031479;28;20064;-73
2023/09/09 07:17:46;;;;;;;21.52;18.15;;;24.10;99.90;;;;;;5030169;28;20408;-73
2023/09/09 07:20:12;;;;;;;21.40;18.17;;;24.20;99.90;;;;;;5029862;28;20123;-72
2023/09/09 07:22:38;;;;;;;19.17;16.95;;;24.40;99.90;;;;;;5030094;28;20049;-73
2023/09/09 07:25:05;;;;;;;20.58;16.40;;;24.70;99.90;;;;;;5054197;22;20045;-69
2023/09/09 07:27:30;;;;;;;17.65;15.13;;;24.90;99.90;;;;;;5031357;28;20049;-68
2023/09/09 07:29:56;;;;;;;21.25;16.55;;;25.10;99.90;;;;;;5029592;28;20041;-68
2023/09/09 07:32:21;;;;;;;18.23;15.02;;;25.10;99.90;;;;;;5031140;28;20045;-68
2023/09/09 07:34:47;;;;;;;18.88;15.60;;;25.40;99.90;;;;;;5031357;28;20044;-68
2023/09/09 07:37:12;;;;;;;22.00;15.07;;;25.60;99.90;;;;;;5030084;28;20145;-68
2023/09/09 07:39:50;;;;;;;16.90;14.82;;;25.70;99.90;;;;;;5029652;28;20048;-68
2023/09/09 07:42:16;;;;;;;16.73;14.88;;;25.70;99.90;;;;;;5032905;28;20037;-68
2023/09/09 07:44:43;;;;;;;16.80;14.73;;;25.70;99.90;;;;;;5035009;28;20476;-68
2023/09/09 07:47:09;;;;;;;18.10;15.55;;;25.90;99.90;;;;;;5034934;28;20132;-68
2023/09/09 07:49:35;;;;;;;21.38;15.93;;;25.80;99.90;;;;;;5034629;28;20077;-69
2023/09/09 07:52:02;;;;;;;20.42;16.45;;;25.80;99.90;;;;;;5034817;28;20057;-68
2023/09/09 07:54:28;;;;;;;18.02;15.68;;;25.80;99.90;;;;;;5034532;28;20087;-68
2023/09/09 07:56:54;;;;;;;19.13;16.27;;;25.80;99.90;;;;;;5033372;28;20133;-68
2023/09/09 07:59:20;;;;;;;22.05;16.63;;;26.10;99.90;;;;;;5034362;28;20183;-68
2023/09/09 08:01:46;;;;;;;20.92;16.70;;;26.10;99.90;;;;;;5034701;28;20060;-68
2023/09/09 08:04:11;;;;;;;24.85;17.63;;;26.20;99.90;;;;;;5034551;28;20404;-68
2023/09/09 08:06:37;;;;;;;21.55;17.85;;;26.20;99.90;;;;;;5034657;28;20084;-68
2023/09/09 08:09:03;;;;;;;19.98;16.33;;;26.20;99.90;;;;;;5034029;28;20415;-68
2023/09/09 08:11:28;;;;;;;23.20;17.55;;;26.30;99.90;;;;;;5034489;28;20096;-69
2023/09/09 08:13:54;;;;;;;22.02;17.67;;;26.40;99.90;;;;;;5034225;28;20507;-69
2023/09/09 08:16:19;;;;;;;20.23;17.38;;;26.30;99.90;;;;;;5034448;28;20084;-69
2023/09/09 08:18:45;;;;;;;25.67;19.77;;;26.40;99.90;;;;;;5034081;28;20033;-68
2023/09/09 08:21:12;;;;;;;20.20;16.98;;;26.50;99.90;;;;;;5034325;28;20427;-68
2023/09/09 08:23:38;;;;;;;24.30;18.75;;;26.50;99.90;;;;;;5033806;28;20038;-68
2023/09/09 08:26:04;;;;;;;22.67;18.40;;;26.70;99.90;;;;;;5032830;28;20037;-68
2023/09/09 08:28:30;;;;;;;21.42;18.70;;;26.60;99.90;;;;;;5033923;28;20480;-68
2023/09/09 08:30:59;;;;;;;24.13;20.33;;;26.70;99.90;;;;;;5034134;28;20524;-68
2023/09/09 08:33:25;;;;;;;26.95;20.90;;;26.80;99.90;;;;;;5033871;28;20044;-68
2023/09/09 08:35:51;;;;;;;27.27;20.80;;;26.80;99.90;;;;;;5033976;28;20037;-68
2023/09/09 08:38:16;;;;;;;25.33;19.55;;;26.80;99.90;;;;;;5033508;28;20447;-68
2023/09/09 08:40:54;;;;;;;27.80;21.23;;;27.00;99.90;;;;;;5032528;28;20419;-68
2023/09/09 08:43:29;;;;;;;31.48;21.98;;;27.10;99.90;;;;;;5033745;28;20120;-68
2023/09/09 08:45:54;;;;;;;25.10;21.35;;;27.30;99.90;;;;;;5032453;28;20411;-68
2023/09/09 08:48:23;;;;;;;28.30;22.27;;;27.30;99.90;;;;;;5033331;28;20125;-69
2023/09/09 08:50:50;;;;;;;28.40;22.52;;;27.30;99.90;;;;;;5032553;28;20579;-68
2023/09/09 08:53:17;;;;;;;25.60;21.40;;;27.10;99.90;;;;;;5032767;28;20132;-68
2023/09/09 08:55:43;;;;;;;28.42;22.95;;;27.20;99.90;;;;;;5032243;28;20048;-68
2023/09/09 08:58:09;;;;;;;30.88;22.85;;;27.20;99.90;;;;;;5033216;28;20053;-68
2023/09/09 09:00:37;;;;;;;27.58;22.75;;;27.10;99.90;;;;;;5033482;28;20397;-68
2023/09/09 09:03:04;;;;;;;23.60;21.05;;;27.20;99.90;;;;;;5033313;28;20076;-68
2023/09/09 09:05:31;;;;;;;29.90;22.33;;;27.30;99.90;;;;;;5032155;28;20060;-68
2023/09/09 09:07:57;;;;;;;29.80;22.80;;;27.30;99.90;;;;;;5033321;28;20071;-68
2023/09/09 09:10:23;;;;;;;27.15;24.25;;;27.30;99.90;;;;;;5033278;28;20065;-68
2023/09/09 09:12:49;;;;;;;31.15;24.60;;;27.30;99.90;;;;;;5033185;28;20104;-68
2023/09/09 09:15:15;;;;;;;27.10;23.98;;;27.20;99.90;;;;;;5033233;28;20041;-68
2023/09/09 09:17:42;;;;;;;28.50;23.60;;;27.20;99.90;;;;;;5033043;28;20049;-69
2023/09/09 09:20:25;;;;;;;31.10;24.73;;;27.10;99.90;;;;;;5033110;28;20103;-68
2023/09/09 09:22:50;;;;;;;28.92;23.52;;;27.10;99.90;;;;;;5032220;28;20037;-68
2023/09/09 09:25:22;;;;;;;30.20;23.83;;;27.10;99.90;;;;;;5032837;28;20084;-68
2023/09/09 09:27:48;;;;;;;28.27;24.03;;;27.00;99.90;;;;;;5033068;28;20045;-68
2023/09/09 09:30:14;;;;;;;29.05;24.42;;;27.00;99.90;;;;;;5032615;28;20087;-69
2023/09/09 09:32:42;;;;;;;27.52;24.45;;;26.90;99.90;;;;;;5032915;28;20504;-69
2023/09/09 09:35:28;;;;;;;27.58;22.63;;;27.00;99.90;;;;;;5033038;28;20417;-68
2023/09/09 09:38:05;;;;;;;30.52;24.95;;;26.90;99.90;;;;;;5031454;28;20518;-68
2023/09/09 09:40:31;;;;;;;28.20;23.77;;;26.90;99.90;;;;;;5031497;28;20084;-68
2023/09/09 09:42:57;;;;;;;28.75;24.25;;;27.00;99.90;;;;;;5032457;28;20060;-68
2023/09/09 09:45:25;;;;;;;28.98;24.20;;;27.00;99.90;;;;;;5032776;28;20488;-68
2023/09/09 09:47:51;;;;;;;26.05;23.23;;;26.90;99.90;;;;;;5032768;28;20416;-68
2023/09/09 09:50:22;;;;;;;28.05;24.77;;;26.90;99.90;;;;;;5031129;28;20051;-68
2023/09/09 09:53:08;;;;;;;33.42;24.27;;;27.00;99.90;;;;;;5032559;28;20041;-69
2023/09/09 09:55:36;;;;;;;25.70;22.92;;;26.90;99.90;;;;;;5031362;28;20562;-68
2023/09/09 09:58:05;;;;;;;29.45;23.70;;;27.00;99.90;;;;;;5032181;28;20412;-68
2023/09/09 10:00:32;;;;;;;25.33;21.35;;;27.00;99.90;;;;;;5032430;28;20642;-68
2023/09/09 10:03:00;;;;;;;25.35;21.50;;;27.00;99.90;;;;;;5032336;28;20041;-68
2023/09/09 10:05:27;;;;;;;26.00;21.45;;;27.00;99.90;;;;;;5032299;28;20037;-68
2023/09/09 10:08:23;;;;;;;24.52;21.13;;;27.10;99.90;;;;;;5032235;28;20037;-68
2023/09/09 10:10:56;;;;;;;24.50;20.63;;;27.10;99.90;;;;;;5032461;28;20129;-69
2023/09/09 10:13:33;;;;;;;23.67;19.50;;;27.20;99.90;;;;;;5032437;28;20167;-68
2023/09/09 10:15:59;;;;;;;25.63;21.33;;;27.30;99.90;;;;;;5031021;28;20052;-69
2023/09/09 10:18:26;;;;;;;25.88;20.50;;;27.40;99.90;;;;;;5032307;28;20049;-69
2023/09/09 10:20:53;;;;;;;23.15;19.08;;;27.30;99.90;;;;;;5032524;28;20048;-69
2023/09/09 10:23:21;;;;;;;24.80;19.67;;;27.10;99.90;;;;;;5031898;28;20065;-69
2023/09/09 10:25:48;;;;;;;23.20;19.08;;;27.00;99.90;;;;;;5030677;28;20049;-69
2023/09/09 10:28:14;;;;;;;25.27;18.75;;;27.00;99.90;;;;;;5031897;28;20712;-69
2023/09/09 10:30:41;;;;;;;20.70;18.00;;;27.10;99.90;;;;;;5031977;28;20041;-68
2023/09/09 10:33:09;;;;;;;22.98;20.55;;;27.20;99.90;;;;;;5032304;28;20135;-69
2023/09/09 10:35:37;;;;;;;21.42;17.88;;;27.20;99.90;;;;;;5032171;28;20044;-69
2023/09/09 10:38:04;;;;;;;20.48;17.02;;;27.20;99.90;;;;;;5031757;28;20034;-69
2023/09/09 10:40:30;;;;;;;20.40;18.10;;;27.30;99.90;;;;;;5031968;28;20052;-69
2023/09/09 10:42:55;;;;;;;20.13;16.60;;;27.30;99.90;;;;;;5032000;28;20084;-68
2023/09/09 10:45:29;;;;;;;20.02;17.70;;;27.40;99.90;;;;;;5031996;28;20073;-70
2023/09/09 10:48:03;;;;;;;21.67;16.95;;;27.20;99.90;;;;;;5030593;28;20072;-69
2023/09/09 10:50:51;;;;;;;19.83;16.48;;;27.20;99.90;;;;;;5030884;28;20067;-68
2023/09/09 10:53:26;;;;;;;20.50;16.15;;;27.40;99.90;;;;;;5031714;28;20603;-69
2023/09/09 10:55:58;;;;;;;21.40;17.55;;;27.30;99.90;;;;;;5031949;28;20052;-69
2023/09/09 10:58:38;;;;;;;21.58;17.08;;;27.20;99.90;;;;;;5031568;28;20079;-68
2023/09/09 11:01:07;;;;;;;18.70;16.15;;;27.10;99.90;;;;;;5032128;28;20562;-68
2023/09/09 11:03:39;;;;;;;21.00;15.75;;;27.10;99.90;;;;;;5031652;28;20124;-68
2023/09/09 11:06:13;;;;;;;17.10;14.80;;;27.20;99.90;;;;;;5030485;28;20045;-68
2023/09/09 11:08:46;;;;;;;16.52;14.25;;;27.20;99.90;;;;;;5030036;28;20125;-68
2023/09/09 11:11:24;;;;;;;18.65;13.07;;;27.10;99.90;;;;;;5030469;28;20507;-69
2023/09/09 11:14:01;;;;;;;15.93;13.02;;;27.10;99.90;;;;;;5030225;28;20056;-69
2023/09/09 11:16:35;;;;;;;16.63;12.02;;;27.10;99.90;;;;;;5031481;28;20381;-68
2023/09/09 11:19:11;;;;;;;17.65;13.15;;;27.20;99.90;;;;;;5034162;28;20519;-69
2023/09/09 11:21:45;;;;;;;15.13;12.25;;;27.10;99.90;;;;;;5035492;28;20051;-69
2023/09/09 11:24:11;;;;;;;13.02;11.32;;;27.10;99.90;;;;;;5035206;28;20091;-68
2023/09/09 11:26:42;;;;;;;16.00;13.18;;;27.20;99.90;;;;;;5033931;28;20049;-69
2023/09/09 11:29:08;;;;;;;15.55;12.95;;;27.10;99.90;;;;;;5034929;28;20080;-68
2023/09/09 11:31:34;;;;;;;17.48;13.15;;;27.10;99.90;;;;;;5035349;28;20124;-68
2023/09/09 11:34:00;;;;;;;19.10;13.10;;;27.00;99.90;;;;;;5035234;28;20075;-68
2023/09/09 11:36:26;;;;;;;21.60;14.73;;;27.00;99.90;;;;;;5034990;28;20045;-69
2023/09/09 11:38:55;;;;;;;18.02;13.73;;;27.00;99.90;;;;;;5034836;28;20037;-69
2023/09/09 11:41:22;;;;;;;21.60;14.68;;;27.00;99.90;;;;;;5033858;28;20041;-69
2023/09/09 11:44:01;;;;;;;16.10;13.55;;;26.90;99.90;;;;;;5035115;28;20041;-69
2023/09/09 11:46:31;;;;;;;15.77;14.00;;;27.00;99.90;;;;;;5035097;28;20039;-69
2023/09/09 11:48:57;;;;;;;17.67;15.38;;;27.00;99.90;;;;;;5034644;28;20413;-69
2023/09/09 11:51:22;;;;;;;24.52;16.23;;;26.90;99.90;;;;;;5034869;28;20052;-69
2023/09/09 11:53:49;;;;;;;19.17;15.60;;;26.90;99.90;;;;;;5034693;28;20086;-69
2023/09/09 11:56:17;;;;;;;19.85;16.45;;;26.90;99.90;;;;;;5034584;28;20030;-69
2023/09/09 11:58:43;;;;;;;17.42;14.82;;;26.90;99.90;;;;;;5034469;28;20052;-69
2023/09/09 12:01:10;;;;;;;20.77;15.27;;;26.90;99.90;;;;;;5034655;28;20041;-69
2023/09/09 12:03:36;;;;;;;23.05;16.98;;;27.10;99.90;;;;;;5034543;28;20049;-69
2023/09/09 12:06:05;;;;;;;17.52;14.50;;;27.10;99.90;;;;;;5033327;28;20041;-69
2023/09/09 12:08:31;;;;;;;18.38;16.42;;;27.20;99.90;;;;;;5033124;28;20037;-69
2023/09/09 12:10:58;;;;;;;24.17;19.63;;;27.30;99.90;;;;;;5034741;28;20041;-69
2023/09/09 12:13:24;;;;;;;25.63;18.88;;;27.20;99.90;;;;;;5034303;28;20530;-70
2023/09/09 12:15:50;;;;;;;21.20;16.25;;;27.20;99.90;;;;;;5033328;28;20049;-70
2023/09/09 12:18:17;;;;;;;19.15;15.70;;;27.20;99.90;;;;;;5034043;28;20448;-70
2023/09/09 12:21:08;;;;;;;19.63;15.60;;;27.10;99.90;;;;;;5034382;28;20121;-70
2023/09/09 12:23:39;;;;;;;20.60;14.48;;;27.20;99.90;;;;;;5034056;28;20038;-69
2023/09/09 12:26:12;;;;;;;18.80;15.90;;;27.10;99.90;;;;;;5034140;28;20555;-69
2023/09/09 12:28:42;;;;;;;20.45;17.27;;;27.20;99.90;;;;;;5031450;28;20042;-69
2023/09/09 12:31:09;;;;;;;19.98;14.85;;;27.10;99.90;;;;;;5034146;28;20033;-69